Time;durP1;ratioP1;P1;durP2;ratioP2;P2;SDS_P1;SDS_P2;PMS_P1;PMS_P2;Temp;Humidity;BMP_temperature;BMP_pressure;BME280_temperature;BME280_humidity;BME280_pressure;Samples;Min_cycle;Max_cycle;Signal;HPM_P1;HPM_P2
2023/09/02 00:00:17;;;;;;;23.48;18.80;;;;;;;14.55;100.00;101585.13;1041345;28;20499;-55
2023/09/02 00:00:48;;;;;;;22.88;19.63;;;;;;;14.55;100.00;101585.94;1045617;28;20041;-54
2023/09/02 00:01:33;;;;;;;26.33;18.63;;;;;;;14.48;100.00;101583.31;1049966;28;20032;-50
2023/09/02 00:02:18;;;;;;;20.02;17.02;;;;;;;14.40;100.00;101580.09;1034432;28;20097;-49
2023/09/02 00:03:04;;;;;;;24.95;19.40;;;;;;;14.48;100.00;101586.00;1031971;28;20444;-52
2023/09/02 00:03:55;;;;;;;21.98;18.35;;;;;;;14.35;100.00;101591.47;1036074;28;20044;-54
2023/09/02 00:05:28;;;;;;;26.02;19.60;;;;;;;14.28;100.00;101590.75;1027720;28;20040;-50
2023/09/02 00:06:37;;;;;;;16.77;14.82;;;;;;;14.29;100.00;101592.38;1037051;28;20045;-51
2023/09/02 00:07:25;;;;;;;24.05;17.08;;;;;;;14.27;100.00;101599.00;1032775;28;20066;-54
2023/09/02 00:08:09;;;;;;;21.63;15.35;;;;;;;14.34;100.00;101597.88;1034140;28;20050;-52
2023/09/02 00:08:45;;;;;;;24.08;17.45;;;;;;;14.41;100.00;101595.94;1026210;28;20549;-53
2023/09/02 00:09:16;;;;;;;23.45;17.80;;;;;;;14.44;100.00;101597.41;1027934;28;20120;-53
2023/09/02 00:09:55;;;;;;;26.00;17.38;;;;;;;14.39;100.00;101603.41;1030724;28;20178;-53
2023/09/02 00:10:28;;;;;;;20.60;17.00;;;;;;;14.20;100.00;101596.38;1039809;28;20046;-52
2023/09/02 00:11:32;;;;;;;19.85;15.32;;;;;;;14.29;100.00;101602.28;1045920;28;20621;-49
2023/09/02 00:13:26;;;;;;;19.83;15.70;;;;;;;14.36;100.00;101603.84;1035156;28;20042;-50
2023/09/02 00:14:31;;;;;;;19.08;15.70;;;;;;;14.31;100.00;101601.03;1032205;28;20053;-53
2023/09/02 00:15:26;;;;;;;19.90;16.00;;;;;;;14.26;100.00;101603.56;1031101;28;20057;-52
2023/09/02 00:17:54;;;;;;;17.98;15.65;;;;;;;14.51;100.00;101607.00;1042576;28;20053;-51
2023/09/02 00:18:53;;;;;;;17.17;14.43;;;;;;;14.59;100.00;101597.03;1037132;28;20038;-54
2023/09/02 00:19:53;;;;;;;22.15;14.77;;;;;;;14.61;100.00;101605.66;1033242;28;20049;-53
2023/09/02 00:20:37;;;;;;;17.80;14.80;;;;;;;14.48;100.00;101603.94;1032543;28;20550;-54
2023/09/02 00:21:24;;;;;;;21.52;16.15;;;;;;;14.44;100.00;101600.91;1030855;28;20057;-50
2023/09/02 00:22:47;;;;;;;22.27;14.77;;;;;;;14.38;100.00;101601.75;1037744;28;20030;-52
2023/09/02 00:23:40;;;;;;;20.50;14.15;;;;;;;14.48;100.00;101596.72;1041008;28;20798;-51
2023/09/02 00:24:33;;;;;;;19.75;16.08;;;;;;;14.53;100.00;101598.75;1037016;28;20057;-51
2023/09/02 00:25:27;;;;;;;;;;;;;;;14.59;100.00;101611.25;1033321;28;20783;-49
2023/09/02 00:26:25;;;;;;;16.55;13.32;;;;;;;14.64;100.00;101610.59;1037154;28;19953;-53
2023/09/02 00:27:11;;;;;;;20.23;16.65;;;;;;;14.66;100.00;101614.69;1040132;28;20034;-50
2023/09/02 00:28:11;;;;;;;22.23;16.65;;;;;;;14.68;100.00;101611.78;1030525;28;20050;-54
2023/09/02 00:28:55;;;;;;;19.88;14.90;;;;;;;14.70;100.00;101609.69;1027509;28;20096;-52
2023/09/02 00:29:38;;;;;;;21.65;16.98;;;;;;;14.62;100.00;101610.81;1026813;28;20139;-54
2023/09/02 00:30:39;;;;;;;17.33;14.27;;;;;;;14.49;100.00;101610.94;1029799;28;20046;-49
2023/09/02 00:31:26;;;;;;;;;;;;;;;14.51;100.00;101611.53;1034264;28;20039;-52
2023/09/02 00:32:07;;;;;;;18.48;15.38;;;;;;;14.51;100.00;101612.34;1032083;28;19922;-53
2023/09/02 00:33:21;;;;;;;20.08;15.43;;;;;;;14.55;100.00;101611.94;1035809;28;20078;-53
2023/09/02 00:34:01;;;;;;;20.75;14.80;;;;;;;14.44;100.00;101611.63;1035645;28;20050;-51
2023/09/02 00:35:16;;;;;;;20.90;16.38;;;;;;;14.42;100.00;101612.84;1041629;28;20164;-50
2023/09/02 00:36:00;;;;;;;18.23;14.45;;;;;;;14.34;100.00;101613.97;1032650;28;20541;-54
2023/09/02 00:36:57;;;;;;;17.15;14.68;;;;;;;14.42;100.00;101612.84;1029059;28;20554;-53
2023/09/02 00:38:08;;;;;;;18.90;15.05;;;;;;;14.49;100.00;101611.75;1034346;28;20045;-51
2023/09/02 00:38:53;;;;;;;22.13;15.30;;;;;;;14.50;100.00;101612.56;1037786;28;20041;-51
2023/09/02 00:39:51;;;;;;;20.10;14.98;;;;;;;14.60;100.00;101614.75;1034096;28;20101;-54
2023/09/02 00:40:52;;;;;;;18.30;15.50;;;;;;;14.73;100.00;101614.59;1040764;28;20033;-53
2023/09/02 00:41:51;;;;;;;19.52;15.55;;;;;;;14.75;100.00;101610.63;1036946;28;20038;-54
2023/09/02 00:42:46;;;;;;;20.40;15.23;;;;;;;14.83;100.00;101601.50;1038181;28;20065;-49
2023/09/02 00:44:15;;;;;;;;;;;;;;;;;;;;;
2023/09/02 00:45:21;;;;;;;21.65;15.32;;;;;;;14.85;100.00;101599.41;1039088;28;20045;-53
2023/09/02 00:46:24;;;;;;;18.50;15.63;;;;;;;14.75;100.00;101597.22;1036450;28;20037;-54
2023/09/02 00:47:25;;;;;;;18.05;14.18;;;;;;;14.61;100.00;101600.31;1023056;29;20307;-50
2023/09/02 00:48:22;;;;;;;19.55;15.63;;;;;;;14.65;100.00;101601.50;1026651;28;20307;-48
2023/09/02 00:49:14;;;;;;;21.88;16.02;;;;;;;14.54;100.00;101603.06;1024485;29;20039;-53
2023/09/02 00:50:07;;;;;;;26.10;16.60;;;;;;;14.58;100.00;101596.22;1036825;28;20559;-51
2023/09/02 00:50:54;;;;;;;26.40;17.15;;;;;;;14.67;100.00;101602.09;1038671;28;20110;-50
2023/09/02 00:51:51;;;;;;;21.65;17.13;;;;;;;14.69;100.00;101597.31;1031561;28;20046;-50
2023/09/02 00:53:01;;;;;;;27.02;16.90;;;;;;;14.64;100.00;101595.31;1023078;28;20423;-53
2023/09/02 00:55:25;;;;;;;23.45;17.30;;;;;;;14.74;100.00;101584.03;1034974;28;20042;-50
2023/09/02 00:56:19;;;;;;;22.50;16.15;;;;;;;14.75;100.00;101597.22;1038662;28;20038;-52
2023/09/02 00:57:18;;;;;;;23.73;18.55;;;;;;;14.72;100.00;101597.69;1031686;28;20313;-53
2023/09/02 00:58:17;;;;;;;24.02;16.20;;;;;;;14.74;100.00;101590.22;1038264;28;20059;-54
2023/09/02 00:59:11;;;;;;;21.13;15.38;;;;;;;14.71;100.00;101590.69;1034227;28;20046;-49
2023/09/02 01:00:14;;;;;;;23.15;15.88;;;;;;;14.64;100.00;101589.13;1028854;28;20043;-51
2023/09/02 01:01:23;;;;;;;18.40;14.10;;;;;;;14.43;100.00;101588.53;1026199;28;20050;-53
2023/09/02 01:02:12;;;;;;;24.08;16.02;;;;;;;14.46;100.00;101593.44;1027859;28;20536;-53
2023/09/02 01:03:13;;;;;;;21.45;15.63;;;;;;;14.38;100.00;101585.69;1032085;28;20297;-52
2023/09/02 01:04:10;;;;;;;28.30;16.65;;;;;;;14.56;100.00;101592.13;1031405;28;21592;-54
2023/09/02 01:04:47;;;;;;;19.83;15.07;;;;;;;14.44;100.00;101584.81;1025681;28;20074;-53
2023/09/02 01:05:44;;;;;;;19.50;14.90;;;;;;;14.44;100.00;101589.34;1025258;28;20577;-50
2023/09/02 01:06:50;;;;;;;17.35;13.55;;;;;;;14.40;100.00;101586.28;1033388;28;20046;-51
2023/09/02 01:07:32;;;;;;;22.83;15.93;;;;;;;14.45;100.00;101591.81;1041683;28;20303;-51
2023/09/02 01:08:25;;;;;;;22.75;16.38;;;;;;;14.44;100.00;101590.16;1029197;28;20035;-54
2023/09/02 01:09:21;;;;;;;21.08;15.43;;;;;;;14.41;100.00;101592.44;1025411;28;20611;-54
2023/09/02 01:10:26;;;;;;;22.83;16.05;;;;;;;14.33;100.00;101590.91;1031105;28;20050;-54
2023/09/02 01:11:19;;;;;;;21.52;15.95;;;;;;;14.22;100.00;101583.56;1031859;28;20043;-53
2023/09/02 01:12:18;;;;;;;17.92;15.60;;;;;;;14.07;100.00;101591.16;1030817;28;20194;-50
2023/09/02 01:13:05;;;;;;;15.50;13.23;;;;;;;14.02;100.00;101586.47;1033835;28;20073;-53
2023/09/02 01:13:54;;;;;;;15.70;13.88;;;;;;;14.06;100.00;101589.53;1029081;28;20038;-49
2023/09/02 01:14:57;;;;;;;17.65;12.43;;;;;;;14.10;100.00;101585.34;1034548;28;20049;-49
2023/09/02 01:15:44;;;;;;;19.90;13.98;;;;;;;14.12;100.00;101585.94;1038712;28;20437;-54
2023/09/02 01:16:24;;;;;;;21.33;13.90;;;;;;;14.13;100.00;101588.41;1036397;28;20432;-50
2023/09/02 01:17:14;;;;;;;18.92;13.88;;;;;;;14.12;100.00;101588.63;1027749;28;20051;-54
2023/09/02 01:18:38;;;;;;;22.25;12.93;;;;;;;14.03;100.00;101587.28;1039231;28;20325;-50
2023/09/02 01:19:24;;;;;;;13.43;10.93;;;;;;;13.88;100.00;101590.28;1038035;28;20038;-49
2023/09/02 01:20:05;;;;;;;34.95;10.82;;;;;;;13.77;100.00;101589.16;1031637;28;20139;-53
2023/09/02 01:21:22;;;;;;;14.70;10.77;;;;;;;13.80;100.00;101588.72;1035856;28;20634;-51
2023/09/02 01:22:30;;;;;;;12.18;10.55;;;;;;;13.80;100.00;101594.06;1036694;28;20085;-51
2023/09/02 01:23:44;;;;;;;11.18;9.15;;;;;;;13.77;100.00;101599.88;1020047;29;20080;-53
2023/09/02 01:25:00;;;;;;;11.43;9.38;;;;;;;13.85;100.00;101604.13;1019099;29;20047;-54
2023/09/02 01:25:59;;;;;;;11.68;10.43;;;;;;;13.87;100.00;101596.69;1020298;29;20051;-54
2023/09/02 01:27:35;;;;;;;11.32;10.23;;;;;;;13.92;100.00;101603.03;1023741;29;20144;-53
2023/09/02 01:28:14;;;;;;;13.43;12.00;;;;;;;14.01;100.00;101600.09;1024325;28;20481;-54
2023/09/02 01:29:07;;;;;;;17.00;11.45;;;;;;;14.00;100.00;101601.13;1026719;28;20054;-54
2023/09/02 01:30:26;;;;;;;17.75;11.77;;;;;;;14.04;100.00;101610.34;1023815;28;20295;-53
2023/09/02 01:31:45;;;;;;;15.43;11.90;;;;;;;14.07;100.00;101609.91;1022914;29;20322;-50
2023/09/02 01:33:05;;;;;;;14.52;11.98;;;;;;;14.07;100.00;101607.22;1020985;29;20052;-53
2023/09/02 01:34:01;;;;;;;11.00;9.75;;;;;;;14.07;100.00;101609.91;1019062;29;20510;-55
2023/09/02 01:34:34;;;;;;;13.63;10.60;;;;;;;14.06;100.00;101611.78;1015343;29;20060;-54
2023/09/02 01:35:07;;;;;;;13.65;11.70;;;;;;;14.04;100.00;101616.53;1012094;29;20048;-54
2023/09/02 01:35:38;;;;;;;11.77;10.20;;;;;;;14.12;100.00;101610.88;1015487;29;20175;-51
2023/09/02 01:36:12;;;;;;;13.82;11.75;;;;;;;14.15;100.00;101606.94;1016170;29;20099;-54
2023/09/02 01:36:50;;;;;;;19.92;12.10;;;;;;;14.12;100.00;101612.75;1016312;29;20055;-54
2023/09/02 01:37:22;;;;;;;14.02;11.45;;;;;;;14.15;100.00;101612.31;1018352;29;20603;-53
2023/09/02 01:37:55;;;;;;;15.65;13.15;;;;;;;14.18;100.00;101606.50;1019611;29;20059;-55
2023/09/02 01:38:29;;;;;;;18.05;13.18;;;;;;;14.16;100.00;101614.75;1019120;29;20482;-50
2023/09/02 01:39:01;;;;;;;14.27;12.10;;;;;;;14.19;100.00;101608.13;1019290;29;20051;-48
2023/09/02 01:39:34;;;;;;;14.77;12.38;;;;;;;14.21;100.00;101612.22;1015495;29;20308;-48
2023/09/02 01:40:07;;;;;;;17.65;12.93;;;;;;;14.27;100.00;101615.91;1015838;29;20184;-51
2023/09/02 01:40:40;;;;;;;17.85;13.63;;;;;;;14.23;100.00;101612.00;1012457;29;20541;-49
2023/09/02 01:41:12;;;;;;;12.90;11.55;;;;;;;14.19;100.00;101614.31;1012242;29;20152;-49
2023/09/02 01:41:45;;;;;;;13.15;11.60;;;;;;;14.17;100.00;101615.56;1008660;29;20390;-50
2023/09/02 01:42:17;;;;;;;13.07;11.70;;;;;;;14.19;100.00;101610.81;1012544;29;20064;-50
2023/09/02 01:42:55;;;;;;;13.20;10.43;;;;;;;14.21;100.00;101611.41;1011994;29;20567;-48
2023/09/02 01:43:29;;;;;;;12.05;10.70;;;;;;;14.25;100.00;101611.81;1015414;29;20179;-51
2023/09/02 01:44:02;;;;;;;13.88;11.73;;;;;;;14.26;100.00;101619.63;1016732;29;20052;-50
2023/09/02 01:44:34;;;;;;;13.07;10.90;;;;;;;14.20;100.00;101605.22;1016331;29;20056;-50
2023/09/02 01:45:07;;;;;;;24.90;12.57;;;;;;;14.07;100.00;101617.94;1020480;29;20559;-50
2023/09/02 01:45:39;;;;;;;14.23;12.73;;;;;;;14.03;100.00;101614.88;1023294;29;20555;-51
2023/09/02 01:46:11;;;;;;;12.23;11.02;;;;;;;14.11;100.00;101611.94;1018779;29;20063;-53
2023/09/02 01:46:43;;;;;;;17.52;11.45;;;;;;;14.14;100.00;101619.50;1019219;29;20055;-54
2023/09/02 01:47:18;;;;;;;13.13;11.77;;;;;;;14.18;100.00;101617.22;1020229;29;20067;-54
2023/09/02 01:47:50;;;;;;;22.17;13.20;;;;;;;14.23;100.00;101612.00;1016086;29;20043;-54
2023/09/02 01:48:23;;;;;;;15.05;12.55;;;;;;;14.23;100.00;101618.19;1010495;29;20065;-53
2023/09/02 01:48:55;;;;;;;16.08;12.88;;;;;;;14.22;100.00;101610.38;1011103;29;20123;-53
2023/09/02 01:49:28;;;;;;;15.65;12.05;;;;;;;14.22;100.00;101613.88;1012993;29;21280;-50
2023/09/02 01:50:01;;;;;;;17.45;13.15;;;;;;;14.24;100.00;101608.28;1013368;29;20057;-49
2023/09/02 01:50:34;;;;;;;18.15;13.48;;;;;;;14.28;100.00;101614.03;1016402;29;20098;-52
2023/09/02 01:51:06;;;;;;;20.20;14.57;;;;;;;14.30;100.00;101620.81;1019446;29;20059;-51
2023/09/02 01:51:39;;;;;;;17.38;14.88;;;;;;;14.24;100.00;101610.97;1020419;29;20087;-49
2023/09/02 01:52:11;;;;;;;16.92;14.48;;;;;;;14.23;100.00;101614.69;1020273;29;20183;-49
2023/09/02 01:52:43;;;;;;;15.18;13.05;;;;;;;14.22;100.00;101613.88;1018998;29;20040;-49
2023/09/02 01:53:15;;;;;;;21.75;13.75;;;;;;;14.25;100.00;101612.63;1019517;29;20549;-49
2023/09/02 01:53:47;;;;;;;15.25;13.10;;;;;;;14.27;100.00;101615.91;1020159;29;20047;-48
2023/09/02 01:54:19;;;;;;;21.33;14.93;;;;;;;14.24;100.00;101610.97;1023109;29;20086;-50
2023/09/02 01:54:52;;;;;;;16.55;12.95;;;;;;;14.24;100.00;101616.31;1020078;29;20087;-49
2023/09/02 01:55:24;;;;;;;17.67;14.57;;;;;;;14.23;100.00;101602.09;1023071;29;20440;-49
2023/09/02 01:55:57;;;;;;;15.77;14.07;;;;;;;14.28;100.00;101606.81;1019216;29;20035;-49
2023/09/02 01:56:29;;;;;;;16.08;13.55;;;;;;;14.31;100.00;101610.91;1016190;29;20040;-51
2023/09/02 01:57:01;;;;;;;22.77;16.55;;;;;;;14.36;100.00;101608.38;1015128;29;20088;-50
2023/09/02 01:57:33;;;;;;;17.40;14.27;;;;;;;14.38;100.00;101620.53;1012260;29;20132;-49
2023/09/02 01:58:05;;;;;;;15.35;13.57;;;;;;;14.41;100.00;101612.03;1011816;29;20041;-48
2023/09/02 01:58:36;;;;;;;20.23;13.82;;;;;;;14.41;100.00;101617.38;1022422;28;20063;-49
2023/09/02 01:59:08;;;;;;;17.50;14.38;;;;;;;14.43;100.00;101617.19;1036332;28;20071;-54
2023/09/02 01:59:40;;;;;;;17.52;13.57;;;;;;;14.45;100.00;101618.63;1035859;28;20046;-54
2023/09/02 02:00:12;;;;;;;14.40;12.38;;;;;;;14.44;100.00;101618.84;1039960;28;20045;-54
2023/09/02 02:00:44;;;;;;;16.23;12.30;;;;;;;14.45;100.00;101617.78;1044104;28;20073;-53
2023/09/02 02:01:16;;;;;;;17.20;13.57;;;;;;;14.44;100.00;101618.84;1039615;28;20507;-54
2023/09/02 02:01:48;;;;;;;14.65;12.52;;;;;;;14.47;100.00;101618.38;1039506;28;20053;-54
2023/09/02 02:02:19;;;;;;;15.27;13.68;;;;;;;14.46;100.00;101625.63;1040044;28;20049;-53
2023/09/02 02:02:54;;;;;;;18.15;14.10;;;;;;;14.47;100.00;101613.84;1040118;28;20048;-54
2023/09/02 02:03:30;;;;;;;14.55;13.07;;;;;;;14.48;100.00;101623.53;1043929;28;20072;-53
2023/09/02 02:04:30;;;;;;;14.30;12.80;;;;;;;14.46;100.00;101620.25;1044281;28;20048;-54
2023/09/02 02:05:05;;;;;;;23.88;14.35;;;;;;;14.48;100.00;101623.53;1033460;28;20173;-54
2023/09/02 02:05:42;;;;;;;16.15;12.95;;;;;;;14.45;100.00;101623.97;1035295;28;20176;-54
2023/09/02 02:06:15;;;;;;;17.65;12.23;;;;;;;14.50;100.00;101616.06;1031454;28;20055;-53
2023/09/02 02:06:47;;;;;;;13.65;12.18;;;;;;;14.48;100.00;101628.88;1029466;28;20177;-54
2023/09/02 02:07:23;;;;;;;16.63;13.88;;;;;;;14.38;100.00;101627.75;1032270;28;20046;-53
2023/09/02 02:07:59;;;;;;;21.48;13.38;;;;;;;14.35;100.00;101622.84;1035416;28;20053;-54
2023/09/02 02:08:37;;;;;;;18.08;14.35;;;;;;;14.28;100.00;101620.22;1035840;28;20042;-54
2023/09/02 02:09:15;;;;;;;16.00;13.00;;;;;;;14.16;100.00;101628.16;1030091;28;20043;-54
2023/09/02 02:09:49;;;;;;;14.80;12.48;;;;;;;14.19;100.00;101619.66;1033882;28;20496;-54
2023/09/02 02:10:24;;;;;;;17.13;13.40;;;;;;;14.20;100.00;101621.31;1031427;28;20133;-54
2023/09/02 02:10:58;;;;;;;18.48;14.38;;;;;;;14.22;100.00;101619.22;1037015;28;20567;-52
2023/09/02 02:11:34;;;;;;;16.17;13.07;;;;;;;14.25;100.00;101615.31;1035559;28;20053;-49
2023/09/02 02:12:06;;;;;;;16.75;12.07;;;;;;;14.27;100.00;101621.25;1029326;28;20532;-53
2023/09/02 02:12:41;;;;;;;16.48;14.73;;;;;;;14.29;100.00;101615.69;1032389;28;20100;-54
2023/09/02 02:13:13;;;;;;;21.60;15.20;;;;;;;14.35;100.00;101615.59;1037667;28;20570;-51
2023/09/02 02:13:44;;;;;;;17.73;15.15;;;;;;;14.38;100.00;101617.03;1040857;28;20050;-48
2023/09/02 02:14:16;;;;;;;18.55;15.13;;;;;;;14.33;100.00;101615.00;1043884;28;20118;-53
2023/09/02 02:14:48;;;;;;;18.85;13.55;;;;;;;14.36;100.00;101613.75;1044389;28;20348;-50
2023/09/02 02:15:21;;;;;;;17.02;13.82;;;;;;;14.33;100.00;101614.19;1044830;28;20514;-54
2023/09/02 02:15:53;;;;;;;16.98;13.25;;;;;;;14.35;100.00;101618.28;1044039;28;20061;-54
2023/09/02 02:16:25;;;;;;;15.20;13.18;;;;;;;14.50;100.00;101621.44;1043599;28;20075;-54
2023/09/02 02:16:57;;;;;;;19.13;13.90;;;;;;;14.58;100.00;101623.03;1035755;28;20049;-54
2023/09/02 02:17:28;;;;;;;13.57;11.75;;;;;;;14.51;100.00;101623.06;1030435;28;20062;-53
2023/09/02 02:18:00;;;;;;;13.82;12.27;;;;;;;14.59;100.00;101621.16;1031387;28;20046;-54
2023/09/02 02:18:36;;;;;;;15.90;11.90;;;;;;;14.70;100.00;101620.41;1031764;28;20097;-53
2023/09/02 02:19:08;;;;;;;16.95;12.38;;;;;;;14.73;100.00;101625.31;1032785;28;20050;-54
2023/09/02 02:19:44;;;;;;;14.65;12.13;;;;;;;14.73;100.00;101625.31;1034937;28;20049;-48
2023/09/02 02:20:15;;;;;;;16.00;11.60;;;;;;;14.71;100.00;101622.88;1036452;28;20578;-50
2023/09/02 02:21:05;;;;;;;15.93;13.13;;;;;;;14.72;100.00;101623.69;1039686;28;20119;-49
2023/09/02 02:21:37;;;;;;;15.02;11.68;;;;;;;14.75;100.00;101620.53;1041967;28;20148;-52
2023/09/02 02:22:08;;;;;;;17.30;12.73;;;;;;;14.77;100.00;101626.50;1043721;28;20048;-51
2023/09/02 02:22:40;;;;;;;15.23;12.32;;;;;;;14.79;100.00;101624.41;1043370;28;20029;-50
2023/09/02 02:23:12;;;;;;;16.08;12.13;;;;;;;14.80;100.00;101615.34;1044100;28;20147;-49
2023/09/02 02:23:44;;;;;;;15.10;12.80;;;;;;;14.81;100.00;101619.66;1035781;28;20042;-49
2023/09/02 02:24:16;;;;;;;21.45;16.75;;;;;;;14.77;100.00;101615.78;1035203;28;20038;-51
2023/09/02 02:24:48;;;;;;;15.30;13.73;;;;;;;14.77;100.00;101616.59;1035878;28;20097;-49
2023/09/02 02:25:20;;;;;;;16.83;13.95;;;;;;;14.81;100.00;101617.81;1036520;28;20130;-48
2023/09/02 02:25:52;;;;;;;16.63;13.82;;;;;;;14.83;100.00;101620.25;1042765;28;20052;-50
2023/09/02 02:26:25;;;;;;;16.15;12.82;;;;;;;14.84;100.00;101617.34;1039423;28;20522;-52
2023/09/02 02:26:56;;;;;;;16.27;13.10;;;;;;;14.87;100.00;101615.25;1041502;28;20045;-50
2023/09/02 02:27:28;;;;;;;15.80;13.98;;;;;;;14.88;100.00;101611.53;1043295;28;20119;-53
2023/09/02 02:28:00;;;;;;;17.42;13.05;;;;;;;14.88;100.00;101607.00;1040030;28;20064;-53
2023/09/02 02:28:31;;;;;;;18.88;15.85;;;;;;;14.89;100.00;101618.53;1044044;28;20041;-54
2023/09/02 02:29:03;;;;;;;25.05;15.73;;;;;;;14.90;100.00;101610.25;1043569;28;20395;-54
2023/09/02 02:29:35;;;;;;;22.58;16.08;;;;;;;14.92;100.00;101613.53;1043034;28;20055;-54
2023/09/02 02:30:07;;;;;;;18.73;15.88;;;;;;;14.92;100.00;101613.53;1044080;28;20037;-53
2023/09/02 02:30:39;;;;;;;20.60;15.60;;;;;;;14.92;100.00;101618.09;1043584;28;20569;-54
2023/09/02 02:31:10;;;;;;;18.60;15.48;;;;;;;14.86;100.00;101613.63;1039873;28;20041;-54
2023/09/02 02:31:42;;;;;;;20.13;15.70;;;;;;;14.88;100.00;101617.72;1039713;28;20085;-54
2023/09/02 02:32:14;;;;;;;20.60;16.73;;;;;;;14.84;100.00;101612.00;1035264;28;20042;-54
2023/09/02 02:32:46;;;;;;;20.58;15.88;;;;;;;14.82;100.00;101618.63;1035651;28;20041;-52
2023/09/02 02:33:18;;;;;;;19.45;15.70;;;;;;;14.82;100.00;101618.63;1040465;28;20045;-54
2023/09/02 02:33:51;;;;;;;20.27;16.73;;;;;;;14.79;100.00;101619.03;1043764;28;20531;-54
2023/09/02 02:34:23;;;;;;;18.88;15.05;;;;;;;14.76;100.00;101619.50;1043838;28;20179;-53
2023/09/02 02:34:55;;;;;;;20.45;15.20;;;;;;;14.75;100.00;101623.22;1043991;28;20522;-54
2023/09/02 02:35:31;;;;;;;19.38;15.00;;;;;;;14.76;100.00;101620.31;1039906;28;20753;-54
2023/09/02 02:36:04;;;;;;;19.20;14.55;;;;;;;14.82;100.00;101618.63;1039601;28;20099;-54
2023/09/02 02:36:37;;;;;;;17.42;14.07;;;;;;;14.79;100.00;101619.03;1036700;28;20068;-54
2023/09/02 02:37:09;;;;;;;16.83;13.68;;;;;;;14.78;100.00;101615.56;1039371;28;20547;-54
2023/09/02 02:37:41;;;;;;;20.17;13.88;;;;;;;14.78;100.00;101626.28;1039423;28;20190;-53
2023/09/02 02:38:12;;;;;;;18.00;14.00;;;;;;;14.76;100.00;101624.88;1039367;28;20132;-54
2023/09/02 02:38:44;;;;;;;18.75;14.82;;;;;;;14.75;100.00;101620.53;1039662;28;20076;-54
2023/09/02 02:39:16;;;;;;;20.60;13.93;;;;;;;14.72;100.00;101618.31;1039268;28;20450;-54
2023/09/02 02:39:48;;;;;;;19.20;14.50;;;;;;;14.72;100.00;101631.72;1039429;28;20128;-54
2023/09/02 02:40:20;;;;;;;17.20;14.93;;;;;;;14.70;100.00;101621.22;1041783;28;20063;-50
2023/09/02 02:40:51;;;;;;;15.57;13.95;;;;;;;14.68;100.00;101625.19;1044429;28;20037;-53
2023/09/02 02:41:23;;;;;;;16.13;13.43;;;;;;;14.68;100.00;101622.50;1043447;28;20111;-48
2023/09/02 02:41:55;;;;;;;17.05;14.27;;;;;;;14.70;100.00;101620.41;1043779;28;20041;-48
2023/09/02 02:42:26;;;;;;;17.40;14.70;;;;;;;14.71;100.00;101624.72;1045303;28;20410;-51
2023/09/02 02:42:58;;;;;;;16.23;13.35;;;;;;;14.67;100.00;101626.22;1043825;28;20182;-53
2023/09/02 02:43:30;;;;;;;17.08;14.15;;;;;;;14.70;100.00;101620.41;1044155;28;20045;-54
2023/09/02 02:44:03;;;;;;;20.90;14.68;;;;;;;14.69;100.00;101622.28;1039913;28;20053;-54
2023/09/02 02:44:35;;;;;;;19.67;14.50;;;;;;;14.69;100.00;101629.50;1039969;28;20052;-54
2023/09/02 02:45:08;;;;;;;16.92;13.27;;;;;;;14.63;100.00;101619.66;1039699;28;20034;-54
2023/09/02 02:45:41;;;;;;;18.50;13.07;;;;;;;14.61;100.00;101624.44;1040128;28;20152;-54
2023/09/02 02:46:12;;;;;;;20.85;14.20;;;;;;;14.63;100.00;101619.66;1039847;28;20098;-54
2023/09/02 02:46:44;;;;;;;17.00;12.93;;;;;;;14.64;100.00;101626.66;1039730;28;20455;-54
2023/09/02 02:47:16;;;;;;;15.18;13.57;;;;;;;14.65;100.00;101629.13;1042760;28;20567;-52
2023/09/02 02:47:47;;;;;;;18.35;13.35;;;;;;;14.67;100.00;101627.03;1035307;28;20066;-52
2023/09/02 02:48:24;;;;;;;24.92;14.98;;;;;;;14.68;100.00;101625.19;1035529;28;20518;-48
2023/09/02 02:48:55;;;;;;;20.63;15.43;;;;;;;14.71;100.00;101630.91;1039655;28;20407;-49
2023/09/02 02:49:27;;;;;;;17.23;14.02;;;;;;;14.70;100.00;101636.50;1039801;28;20038;-49
2023/09/02 02:49:59;;;;;;;22.08;14.30;;;;;;;14.70;100.00;101637.31;1039459;28;20604;-48
2023/09/02 02:50:34;;;;;;;18.33;14.55;;;;;;;14.71;100.00;101633.59;1039953;28;20403;-49
2023/09/02 02:51:05;;;;;;;17.55;14.95;;;;;;;14.71;100.00;101638.13;1039736;28;20399;-48
2023/09/02 02:51:37;;;;;;;16.98;14.25;;;;;;;14.69;100.00;101634.84;1039536;28;20050;-49
2023/09/02 02:52:09;;;;;;;17.98;13.48;;;;;;;14.69;100.00;101634.84;1035348;28;20419;-51
2023/09/02 02:52:40;;;;;;;18.38;13.70;;;;;;;14.70;100.00;101636.50;1030965;28;20404;-51
2023/09/02 02:53:12;;;;;;;18.58;15.38;;;;;;;14.70;100.00;101636.50;1031678;28;20509;-51
2023/09/02 02:53:45;;;;;;;15.77;13.70;;;;;;;14.70;100.00;101647.22;1035404;28;20053;-49
2023/09/02 02:54:17;;;;;;;18.02;15.07;;;;;;;14.70;100.00;101640.00;1035709;28;20553;-50
2023/09/02 02:54:48;;;;;;;18.13;14.55;;;;;;;14.69;100.00;101640.22;1039382;28;20042;-48
2023/09/02 02:55:21;;;;;;;19.65;15.07;;;;;;;14.68;100.00;101638.59;1035510;28;20049;-52
2023/09/02 02:55:53;;;;;;;24.63;15.52;;;;;;;14.70;100.00;101637.31;1034866;28;20045;-49
2023/09/02 02:56:25;;;;;;;17.23;14.75;;;;;;;14.72;100.00;101647.81;1035563;28;20041;-51
2023/09/02 02:56:57;;;;;;;15.77;14.18;;;;;;;14.73;100.00;101644.09;1029839;28;20550;-48
2023/09/02 02:57:29;;;;;;;22.17;15.63;;;;;;;14.70;100.00;101650.72;1031435;28;20034;-49
2023/09/02 02:58:00;;;;;;;17.42;14.32;;;;;;;14.72;100.00;101645.13;1035581;28;20042;-53
2023/09/02 02:58:32;;;;;;;24.33;15.85;;;;;;;14.71;100.00;101640.81;1040118;28;20469;-54
2023/09/02 02:59:05;;;;;;;22.05;16.10;;;;;;;14.72;100.00;101647.81;1039704;28;20191;-54
2023/09/02 02:59:37;;;;;;;18.95;16.10;;;;;;;14.73;100.00;101652.13;1039284;28;20045;-54
2023/09/02 03:00:09;;;;;;;17.98;14.95;;;;;;;14.74;100.00;101648.41;1033664;28;20085;-53
2023/09/02 03:00:42;;;;;;;19.08;16.65;;;;;;;14.76;100.00;101651.69;1031576;28;20074;-54
2023/09/02 03:01:14;;;;;;;19.58;15.30;;;;;;;14.75;100.00;101647.38;1032108;28;20045;-51
2023/09/02 03:01:50;;;;;;;19.90;15.52;;;;;;;14.80;100.00;101650.22;1029682;28;20567;-54
2023/09/02 03:02:22;;;;;;;18.95;14.98;;;;;;;14.81;100.00;101649.19;1029358;28;20058;-53
2023/09/02 03:02:54;;;;;;;20.73;16.10;;;;;;;14.83;100.00;101652.44;1033432;28;20233;-54
2023/09/02 03:03:26;;;;;;;19.77;14.57;;;;;;;14.87;100.00;101650.94;1032207;28;20551;-51
2023/09/02 03:03:59;;;;;;;20.48;15.70;;;;;;;14.87;100.00;101647.44;1031285;28;20381;-51
2023/09/02 03:04:32;;;;;;;20.40;15.85;;;;;;;14.88;100.00;101644.53;1031168;28;20413;-49
2023/09/02 03:05:04;;;;;;;20.23;15.20;;;;;;;14.88;100.00;101649.91;1031951;28;20120;-49
2023/09/02 03:05:39;;;;;;;19.83;16.20;;;;;;;14.93;100.00;101647.38;1035912;28;20038;-54
2023/09/02 03:06:17;;;;;;;18.77;15.25;;;;;;;14.94;100.00;101649.00;1036654;28;20185;-54
2023/09/02 03:06:49;;;;;;;19.60;15.27;;;;;;;14.98;100.00;101647.50;1040754;28;20056;-53
2023/09/02 03:07:21;;;;;;;17.90;15.23;;;;;;;15.01;100.00;101649.72;1035125;28;20486;-54
2023/09/02 03:07:53;;;;;;;21.75;17.30;;;;;;;15.00;100.00;101653.47;1036241;28;20038;-49
2023/09/02 03:08:25;;;;;;;21.42;16.33;;;;;;;14.99;100.00;101653.69;1036675;28;20049;-49
2023/09/02 03:08:56;;;;;;;21.35;16.15;;;;;;;14.94;100.00;101642.81;1039931;28;20435;-50
2023/09/02 03:09:28;;;;;;;17.98;15.23;;;;;;;14.98;100.00;101647.50;1039274;28;20029;-52
2023/09/02 03:10:00;;;;;;;16.92;15.15;;;;;;;14.95;100.00;101650.63;1039510;28;20054;-51